Time;durP1;ratioP1;P1;durP2;ratioP2;P2;SDS_P1;SDS_P2;PMS_P1;PMS_P2;Temp;Humidity;BMP_temperature;BMP_pressure;BME280_temperature;BME280_humidity;BME280_pressure;Samples;Min_cycle;Max_cycle;Signal;HPM_P1;HPM_P2
2022/08/03 00:01:46;;;;;;;2.93;1.73;;;27.50;47.60;;;;;;5013456;28;20464;-71
2022/08/03 00:04:14;;;;;;;1.60;1.50;;;27.40;47.40;;;;;;5021639;28;20935;-70
2022/08/03 00:06:42;;;;;;;1.57;1.47;;;27.50;47.40;;;;;;5023058;28;20987;-71
2022/08/03 00:09:10;;;;;;;1.70;1.57;;;27.40;47.30;;;;;;5021213;28;20499;-70
2022/08/03 00:11:39;;;;;;;1.77;1.50;;;27.40;47.40;;;;;;5012920;28;20986;-72
2022/08/03 00:14:07;;;;;;;1.63;1.50;;;27.50;48.70;;;;;;5014303;28;20479;-70
2022/08/03 00:16:36;;;;;;;1.73;1.63;;;27.40;47.40;;;;;;5018699;28;20963;-71
2022/08/03 00:19:05;;;;;;;2.20;1.57;;;27.50;47.40;;;;;;5019564;28;20821;-70
2022/08/03 00:21:33;;;;;;;2.67;1.30;;;27.40;47.70;;;;;;5015369;28;20480;-71
2022/08/03 00:24:01;;;;;;;1.40;1.20;;;27.50;47.50;;;;;;5016787;28;20840;-71
2022/08/03 00:26:30;;;;;;;1.90;1.80;;;27.50;47.50;;;;;;5014162;28;20499;-71
2022/08/03 00:28:58;;;;;;;1.57;1.47;;;27.50;47.40;;;;;;5013984;28;20433;-71
2022/08/03 00:31:26;;;;;;;1.90;1.80;;;27.50;47.50;;;;;;5016189;28;20643;-71
2022/08/03 00:34:16;;;;;;;1.33;1.23;;;27.40;47.30;;;;;;5014815;28;20455;-70
2022/08/03 00:36:57;;;;;;;2.67;1.43;;;27.40;47.40;;;;;;5006884;28;20523;-71
2022/08/03 00:39:25;;;;;;;1.93;1.80;;;27.50;47.50;;;;;;5020351;28;20480;-70
2022/08/03 00:41:53;;;;;;;1.80;1.70;;;27.40;47.30;;;;;;5012333;28;20485;-70
2022/08/03 00:44:21;;;;;;;2.07;1.40;;;27.50;47.50;;;;;;5021092;28;20432;-71
2022/08/03 00:46:49;;;;;;;1.70;1.53;;;27.50;47.40;;;;;;5013376;28;20469;-70
2022/08/03 00:49:19;;;;;;;2.33;1.50;;;27.50;47.40;;;;;;5012553;28;20452;-70
2022/08/03 00:51:47;;;;;;;1.53;1.43;;;27.50;47.50;;;;;;5017647;28;20845;-71
2022/08/03 00:54:16;;;;;;;2.33;1.87;;;27.50;47.50;;;;;;5008642;28;20463;-71
2022/08/03 00:56:44;;;;;;;1.97;1.87;;;27.50;47.60;;;;;;5016150;28;20971;-71
2022/08/03 00:59:27;;;;;;;1.40;1.30;;;27.40;47.50;;;;;;5021608;28;20973;-70
2022/08/03 01:01:56;;;;;;;2.40;1.67;;;27.50;47.60;;;;;;5021005;28;20454;-70
2022/08/03 01:04:25;;;;;;;2.27;1.90;;;27.40;47.50;;;;;;5010110;28;20444;-70
2022/08/03 01:07:03;;;;;;;1.73;1.63;;;27.50;47.40;;;;;;5020806;28;20461;-70
2022/08/03 01:09:40;;;;;;;2.53;1.80;;;27.40;47.40;;;;;;5017771;28;20456;-71
2022/08/03 01:12:16;;;;;;;1.57;1.47;;;27.50;47.40;;;;;;5013392;28;20472;-71
2022/08/03 01:14:58;;;;;;;1.87;1.67;;;27.40;47.40;;;;;;5012777;28;20432;-71
2022/08/03 01:17:34;;;;;;;1.80;1.70;;;27.50;47.50;;;;;;5017565;28;20464;-71
2022/08/03 01:20:07;;;;;;;2.10;1.70;;;27.40;47.50;;;;;;5012424;28;20456;-71
2022/08/03 01:23:24;;;;;;;1.90;1.80;;;27.50;47.40;;;;;;5016667;28;20889;-70
2022/08/03 01:26:09;;;;;;;1.67;1.57;;;27.40;47.40;;;;;;5015092;28;20989;-70
2022/08/03 01:28:56;;;;;;;1.60;1.50;;;27.40;48.50;;;;;;5016126;28;20467;-71
2022/08/03 01:31:29;;;;;;;1.90;1.80;;;27.40;47.40;;;;;;5014952;28;21052;-71
2022/08/03 01:34:01;;;;;;;2.50;2.30;;;27.40;47.50;;;;;;5012230;28;20525;-70
2022/08/03 01:36:33;;;;;;;2.37;2.17;;;27.40;47.50;;;;;;5016063;28;20838;-71
2022/08/03 01:39:08;;;;;;;1.90;1.63;;;27.40;47.50;;;;;;5012696;28;20437;-70
2022/08/03 01:41:42;;;;;;;1.80;1.70;;;27.40;47.50;;;;;;5010846;28;20891;-71
2022/08/03 01:44:13;;;;;;;2.50;2.03;;;27.40;47.40;;;;;;5013084;28;20496;-71
2022/08/03 01:47:01;;;;;;;2.17;1.80;;;27.40;47.50;;;;;;5014002;28;20500;-71
2022/08/03 01:49:32;;;;;;;2.00;1.23;;;27.40;47.50;;;;;;5012027;28;20495;-70
2022/08/03 01:52:03;;;;;;;1.70;1.60;;;27.40;47.50;;;;;;5011563;28;20497;-70
2022/08/03 01:54:44;;;;;;;1.70;1.60;;;27.40;47.60;;;;;;5011685;28;20452;-70
2022/08/03 01:57:13;;;;;;;2.20;2.07;;;27.40;47.50;;;;;;5019019;28;21043;-71
2022/08/03 01:59:43;;;;;;;1.87;1.77;;;27.40;47.50;;;;;;5017255;28;20452;-70
2022/08/03 02:02:14;;;;;;;2.10;1.80;;;27.40;47.50;;;;;;5016507;28;20515;-70
2022/08/03 02:05:05;;;;;;;2.30;1.80;;;27.40;47.50;;;;;;5006157;28;20453;-70
2022/08/03 02:07:40;;;;;;;1.53;1.43;;;27.40;47.50;;;;;;5021168;28;20479;-71
2022/08/03 02:10:11;;;;;;;3.30;1.60;;;27.40;47.60;;;;;;5023985;28;21007;-71
2022/08/03 02:12:40;;;;;;;1.80;1.70;;;27.40;47.40;;;;;;5013817;28;20531;-71
2022/08/03 02:15:09;;;;;;;2.07;1.40;;;27.40;47.40;;;;;;5011832;28;20491;-72
2022/08/03 02:17:41;;;;;;;2.30;1.77;;;27.40;47.50;;;;;;5014245;28;20488;-71
2022/08/03 02:20:12;;;;;;;2.50;2.00;;;27.40;47.50;;;;;;5018198;28;20464;-71
2022/08/03 02:22:42;;;;;;;1.67;1.50;;;27.40;47.60;;;;;;5011547;28;20457;-71
2022/08/03 02:25:12;;;;;;;1.83;1.73;;;27.40;47.60;;;;;;5011471;28;20433;-70
2022/08/03 02:27:45;;;;;;;1.80;1.60;;;27.30;47.50;;;;;;5010937;28;20535;-71
2022/08/03 02:30:14;;;;;;;1.53;1.43;;;27.40;47.50;;;;;;5014081;28;20970;-71
2022/08/03 02:32:51;;;;;;;2.00;1.90;;;27.40;47.60;;;;;;5011431;28;20468;-71
2022/08/03 02:35:22;;;;;;;1.60;1.50;;;27.40;47.70;;;;;;5020058;28;20440;-70
2022/08/03 02:37:55;;;;;;;1.80;1.60;;;27.40;47.50;;;;;;5012543;28;20429;-71
2022/08/03 02:40:26;;;;;;;2.60;1.30;;;27.40;47.60;;;;;;5017097;28;21174;-70
2022/08/03 02:42:57;;;;;;;1.90;1.27;;;27.30;47.60;;;;;;5012665;28;20468;-70
2022/08/03 02:45:27;;;;;;;2.00;1.90;;;27.30;47.70;;;;;;5011744;28;20503;-71
2022/08/03 02:48:02;;;;;;;2.60;2.03;;;27.40;47.70;;;;;;5018339;28;20437;-70
2022/08/03 02:50:33;;;;;;;1.40;1.30;;;27.40;47.80;;;;;;5009149;28;20534;-71
2022/08/03 02:53:02;;;;;;;1.70;1.60;;;27.40;47.70;;;;;;5013106;28;20465;-71
2022/08/03 02:55:34;;;;;;;1.80;1.70;;;27.40;47.80;;;;;;5018966;28;20519;-71
2022/08/03 02:58:12;;;;;;;1.53;1.37;;;27.30;48.20;;;;;;5012453;28;20457;-70
2022/08/03 03:00:41;;;;;;;2.30;1.57;;;27.30;47.70;;;;;;5019899;28;20522;-70
2022/08/03 03:03:11;;;;;;;1.70;1.60;;;27.30;47.70;;;;;;5011923;28;20531;-70
2022/08/03 03:05:41;;;;;;;1.70;1.60;;;27.30;47.80;;;;;;5014741;28;20487;-71
2022/08/03 03:08:23;;;;;;;1.10;1.03;;;27.30;47.80;;;;;;5021971;28;20945;-70
2022/08/03 03:10:58;;;;;;;1.60;1.50;;;27.30;47.90;;;;;;5018493;28;20517;-71
2022/08/03 03:13:27;;;;;;;1.33;1.23;;;27.30;47.80;;;;;;5026213;28;20464;-70
2022/08/03 03:16:00;;;;;;;1.70;1.40;;;27.30;47.80;;;;;;5020506;28;20973;-71
2022/08/03 03:18:31;;;;;;;1.60;1.50;;;27.30;47.80;;;;;;5014349;28;21001;-70
2022/08/03 03:21:01;;;;;;;1.40;1.30;;;27.30;47.90;;;;;;5016184;28;20465;-71
2022/08/03 03:23:31;;;;;;;2.50;1.30;;;27.30;47.80;;;;;;5023570;28;20431;-70
2022/08/03 03:26:01;;;;;;;1.60;1.33;;;27.30;47.80;;;;;;5013429;28;20457;-70
2022/08/03 03:28:31;;;;;;;1.83;1.73;;;27.30;47.90;;;;;;5031771;28;20494;-70
2022/08/03 03:31:00;;;;;;;1.53;1.30;;;27.30;47.90;;;;;;5014453;28;20929;-71
2022/08/03 03:33:30;;;;;;;1.47;1.37;;;27.30;47.90;;;;;;5022747;28;20465;-70
2022/08/03 03:35:59;;;;;;;1.83;1.50;;;27.30;47.80;;;;;;5013698;28;20473;-71
2022/08/03 03:38:27;;;;;;;1.70;1.60;;;27.20;47.90;;;;;;5015292;28;20440;-71
2022/08/03 03:40:55;;;;;;;1.50;1.40;;;27.20;47.70;;;;;;5030842;28;20514;-70
2022/08/03 03:43:24;;;;;;;1.93;1.83;;;27.20;47.90;;;;;;5015271;28;20440;-71
2022/08/03 03:45:52;;;;;;;1.60;1.50;;;27.20;47.80;;;;;;5009203;28;20462;-70
2022/08/03 03:48:20;;;;;;;1.40;1.30;;;27.20;47.90;;;;;;5018784;28;20461;-70
2022/08/03 03:50:50;;;;;;;1.40;1.30;;;27.20;47.90;;;;;;5011110;28;20519;-70
2022/08/03 03:53:18;;;;;;;1.67;1.57;;;27.30;48.00;;;;;;5022598;28;20583;-70
2022/08/03 03:55:46;;;;;;;1.60;1.50;;;27.20;47.90;;;;;;5009825;28;20448;-70
2022/08/03 03:58:30;;;;;;;1.50;1.40;;;27.20;48.00;;;;;;5025102;28;20435;-71
2022/08/03 04:00:59;;;;;;;1.30;1.20;;;27.20;47.90;;;;;;5016037;28;20471;-71
2022/08/03 04:03:27;;;;;;;1.60;1.50;;;27.20;48.00;;;;;;5021620;28;20548;-70
2022/08/03 04:11:48;;;;;;;1.70;1.60;;;27.20;47.90;;;;;;4980063;28;20478;-71
2022/08/03 04:14:19;;;;;;;1.70;1.60;;;27.20;47.80;;;;;;4980531;28;20489;-71
2022/08/03 04:16:51;;;;;;;1.47;1.37;;;27.20;47.80;;;;;;4976160;28;20603;-71
2022/08/03 04:19:24;;;;;;;1.57;1.30;;;27.20;47.90;;;;;;5013565;28;20507;-70
2022/08/03 04:21:58;;;;;;;1.57;1.47;;;27.20;48.00;;;;;;5014980;28;20652;-70
2022/08/03 04:24:32;;;;;;;1.67;1.47;;;27.20;48.00;;;;;;5013301;28;20449;-70
2022/08/03 04:27:04;;;;;;;1.40;1.30;;;27.20;48.00;;;;;;5019782;28;20467;-71
2022/08/03 04:29:36;;;;;;;2.00;1.80;;;27.20;48.00;;;;;;5021009;28;20449;-70
2022/08/03 04:32:15;;;;;;;1.30;1.20;;;27.20;47.90;;;;;;5019309;28;20479;-70
2022/08/03 04:34:44;;;;;;;1.50;1.30;;;27.20;48.00;;;;;;5012408;28;20475;-70
2022/08/03 04:37:19;;;;;;;2.00;1.80;;;27.20;48.00;;;;;;5011959;28;20555;-70
2022/08/03 04:39:50;;;;;;;1.97;1.87;;;27.20;48.00;;;;;;5031676;28;20473;-71
2022/08/03 04:42:22;;;;;;;1.20;1.10;;;27.20;48.00;;;;;;5009086;28;20479;-70
2022/08/03 04:44:51;;;;;;;1.50;1.40;;;27.10;47.90;;;;;;5022362;28;20425;-71
2022/08/03 04:47:22;;;;;;;1.60;1.50;;;27.10;47.90;;;;;;5021139;28;20472;-71
2022/08/03 04:49:51;;;;;;;1.73;1.63;;;27.10;48.00;;;;;;5012709;28;20524;-70
2022/08/03 04:52:20;;;;;;;1.70;1.60;;;27.10;48.00;;;;;;5013434;28;20511;-70
2022/08/03 04:54:49;;;;;;;2.07;1.97;;;27.10;48.00;;;;;;5012108;28;20504;-70
2022/08/03 04:57:18;;;;;;;1.60;1.50;;;27.10;48.00;;;;;;5015875;28;20987;-71
2022/08/03 04:59:53;;;;;;;1.80;1.50;;;27.10;48.10;;;;;;5014116;28;20574;-71
2022/08/03 05:02:30;;;;;;;1.83;1.53;;;27.10;48.10;;;;;;5021935;28;21056;-70
2022/08/03 05:04:59;;;;;;;1.70;1.60;;;27.10;48.10;;;;;;5014291;28;20476;-71
2022/08/03 05:07:28;;;;;;;1.47;1.37;;;27.10;48.10;;;;;;5011877;28;20480;-70
2022/08/03 05:10:03;;;;;;;4.00;2.53;;;27.10;48.30;;;;;;5012443;28;20471;-71
2022/08/03 05:12:42;;;;;;;4.40;3.47;;;27.00;48.30;;;;;;5012651;28;20484;-71
2022/08/03 05:15:10;;;;;;;5.93;3.97;;;27.00;48.20;;;;;;5027556;28;20513;-71
2022/08/03 05:17:40;;;;;;;6.10;4.20;;;26.90;48.00;;;;;;5015598;28;20460;-70
2022/08/03 05:20:09;;;;;;;5.23;3.50;;;26.90;48.10;;;;;;5023749;28;20475;-71
2022/08/03 05:22:39;;;;;;;5.43;4.30;;;26.80;48.10;;;;;;5014504;28;20835;-71
2022/08/03 05:25:07;;;;;;;4.30;3.87;;;26.80;48.00;;;;;;5021112;28;20964;-71
2022/08/03 05:27:35;;;;;;;5.90;4.17;;;26.80;48.10;;;;;;5010257;28;20994;-72
2022/08/03 05:30:04;;;;;;;8.17;4.87;;;26.80;48.00;;;;;;5016998;28;20828;-71
2022/08/03 05:32:53;;;;;;;9.60;5.17;;;26.80;48.00;;;;;;5012112;28;20551;-71
2022/08/03 05:35:24;;;;;;;7.37;5.53;;;26.80;47.90;;;;;;5012771;28;20456;-71
2022/08/03 05:38:13;;;;;;;5.73;5.10;;;26.80;48.00;;;;;;5007042;28;20431;-71
2022/08/03 05:40:51;;;;;;;7.27;4.40;;;26.80;47.90;;;;;;5005925;28;20534;-71
2022/08/03 05:43:24;;;;;;;5.80;5.10;;;26.80;47.80;;;;;;5013071;28;20507;-71
2022/08/03 05:45:52;;;;;;;9.07;5.20;;;26.80;48.00;;;;;;5012143;28;20545;-71
2022/08/03 05:48:39;;;;;;;7.40;4.90;;;26.80;48.10;;;;;;5015794;28;20460;-71
2022/08/03 05:51:09;;;;;;;6.73;4.47;;;26.70;48.00;;;;;;5012447;28;20800;-71
2022/08/03 05:53:40;;;;;;;7.83;4.87;;;26.70;48.10;;;;;;5012512;28;20529;-71
2022/08/03 05:56:09;;;;;;;5.33;4.70;;;26.80;48.10;;;;;;5019452;28;20464;-70
2022/08/03 05:58:42;;;;;;;8.13;4.57;;;26.80;48.10;;;;;;5027060;28;20882;-71
2022/08/03 06:01:10;;;;;;;8.10;5.10;;;26.80;48.10;;;;;;5018609;28;20877;-71
2022/08/03 06:03:38;;;;;;;4.23;3.83;;;26.80;48.10;;;;;;5015956;28;20432;-71
2022/08/03 06:06:06;;;;;;;3.80;3.03;;;26.80;48.10;;;;;;5006184;28;20494;-71
2022/08/03 06:08:34;;;;;;;4.53;3.70;;;26.80;48.10;;;;;;5010155;28;20800;-71
2022/08/03 06:11:04;;;;;;;6.20;3.83;;;26.70;47.90;;;;;;5010688;28;20531;-71
2022/08/03 06:13:32;;;;;;;5.03;3.80;;;26.70;48.00;;;;;;5015646;28;20931;-71
2022/08/03 06:16:00;;;;;;;5.90;3.23;;;26.70;47.90;;;;;;5011850;28;20826;-71
2022/08/03 06:18:28;;;;;;;3.47;3.23;;;26.70;48.00;;;;;;5012270;28;20433;-71
2022/08/03 06:20:56;;;;;;;6.33;3.50;;;26.70;47.80;;;;;;5011553;28;21002;-71
2022/08/03 06:23:37;;;;;;;3.47;3.17;;;26.70;47.80;;;;;;5003393;28;20915;-71
2022/08/03 06:26:26;;;;;;;4.23;3.20;;;26.70;47.90;;;;;;5010647;28;20464;-71
2022/08/03 06:28:55;;;;;;;4.77;3.50;;;26.70;47.80;;;;;;5011637;28;20441;-71
2022/08/03 06:31:24;;;;;;;4.93;3.70;;;26.70;47.80;;;;;;5019579;28;20521;-71
2022/08/03 06:34:01;;;;;;;4.60;3.33;;;26.70;47.90;;;;;;5009327;28;20424;-71
2022/08/03 06:36:50;;;;;;;5.27;3.17;;;26.70;47.80;;;;;;5003653;28;20461;-71
2022/08/03 06:39:20;;;;;;;4.30;3.20;;;26.70;47.80;;;;;;5009347;28;20963;-71
2022/08/03 06:41:53;;;;;;;5.77;4.50;;;26.70;47.80;;;;;;5010804;28;20472;-71
2022/08/03 06:44:22;;;;;;;5.93;3.80;;;26.70;47.80;;;;;;5012312;28;20532;-71
2022/08/03 06:46:51;;;;;;;3.63;3.33;;;26.70;47.80;;;;;;5008362;28;20472;-72
2022/08/03 06:49:19;;;;;;;5.23;4.00;;;26.70;47.60;;;;;;5026002;28;20432;-71
2022/08/03 06:51:49;;;;;;;4.13;3.40;;;26.80;47.20;;;;;;5015849;28;20888;-71
2022/08/03 06:54:36;;;;;;;13.60;7.40;;;26.90;47.00;;;;;;5012792;28;20481;-70
2022/08/03 06:57:08;;;;;;;5.47;4.20;;;27.00;47.20;;;;;;5010081;28;20472;-71
2022/08/03 06:59:36;;;;;;;3.20;2.90;;;27.00;46.90;;;;;;5011402;28;20441;-71
2022/08/03 07:02:24;;;;;;;4.00;2.97;;;27.10;46.70;;;;;;5014456;28;20471;-71
2022/08/03 07:04:55;;;;;;;4.70;3.53;;;27.10;46.30;;;;;;5010298;28;20437;-71
2022/08/03 07:07:24;;;;;;;8.53;3.17;;;27.20;46.10;;;;;;5015032;28;20473;-71
2022/08/03 07:09:52;;;;;;;4.80;3.30;;;27.20;47.00;;;;;;5009780;28;20476;-71
2022/08/03 07:12:29;;;;;;;3.83;3.20;;;27.30;45.90;;;;;;5010903;28;20559;-71
2022/08/03 07:14:58;;;;;;;5.17;3.50;;;27.30;45.90;;;;;;5011467;28;20488;-71
2022/08/03 07:17:30;;;;;;;7.70;3.23;;;27.30;45.90;;;;;;5009574;28;20815;-71
2022/08/03 07:19:59;;;;;;;3.23;2.90;;;27.30;45.80;;;;;;5009862;28;20581;-70
2022/08/03 07:22:27;;;;;;;5.40;3.33;;;27.30;45.60;;;;;;5010676;28;20456;-70
2022/08/03 07:24:56;;;;;;;4.90;3.33;;;27.30;45.70;;;;;;5009941;28;20453;-71
2022/08/03 07:27:27;;;;;;;4.90;2.97;;;27.20;45.90;;;;;;5010675;28;20461;-71
2022/08/03 07:29:58;;;;;;;4.30;3.20;;;27.10;46.10;;;;;;5004812;28;20467;-71
2022/08/03 07:32:30;;;;;;;4.43;3.00;;;27.10;46.40;;;;;;5011457;28;20472;-71
2022/08/03 07:34:58;;;;;;;3.10;2.80;;;27.00;46.50;;;;;;5012211;28;20445;-71
2022/08/03 07:37:29;;;;;;;4.43;3.00;;;27.00;46.70;;;;;;5011628;28;20845;-70
2022/08/03 07:39:58;;;;;;;3.03;2.67;;;27.00;46.80;;;;;;5016164;28;20469;-70
2022/08/03 07:42:26;;;;;;;3.50;3.20;;;27.00;46.90;;;;;;5010752;28;20470;-70
2022/08/03 07:44:56;;;;;;;6.23;3.10;;;27.00;47.00;;;;;;5014410;28;20476;-70
2022/08/03 07:47:27;;;;;;;3.53;3.23;;;26.90;46.90;;;;;;5010837;28;20468;-70
2022/08/03 07:50:03;;;;;;;3.67;2.93;;;26.90;47.00;;;;;;5014608;28;20464;-70
2022/08/03 07:52:50;;;;;;;3.47;3.17;;;26.90;47.10;;;;;;5020806;28;20890;-70
2022/08/03 07:55:20;;;;;;;3.50;3.20;;;26.90;47.20;;;;;;5021072;28;20461;-71
2022/08/03 07:57:58;;;;;;;3.17;2.60;;;27.00;47.10;;;;;;5013830;28;20514;-70
2022/08/03 08:00:28;;;;;;;4.80;3.40;;;27.00;47.20;;;;;;5013662;28;20874;-71
2022/08/03 08:02:56;;;;;;;3.47;2.80;;;26.90;47.60;;;;;;5013626;28;20437;-71
2022/08/03 08:05:24;;;;;;;4.13;2.90;;;26.90;47.10;;;;;;5010788;28;20441;-70
2022/08/03 08:07:52;;;;;;;2.67;2.47;;;26.90;47.10;;;;;;5014602;28;20413;-70
2022/08/03 08:10:20;;;;;;;3.43;3.07;;;26.90;47.20;;;;;;5012875;28;20581;-70
2022/08/03 08:12:49;;;;;;;3.27;2.80;;;26.90;47.20;;;;;;5022337;28;20471;-70
2022/08/03 08:15:17;;;;;;;4.73;3.23;;;26.90;47.30;;;;;;5021862;28;20542;-71
2022/08/03 08:17:48;;;;;;;3.10;2.80;;;26.90;47.30;;;;;;5010376;28;20531;-71
2022/08/03 08:20:18;;;;;;;3.40;2.90;;;26.90;47.30;;;;;;5022292;28;20958;-70
2022/08/03 08:22:56;;;;;;;3.07;2.77;;;26.90;47.30;;;;;;5014399;28;20468;-71
2022/08/03 08:25:25;;;;;;;3.17;2.70;;;26.90;47.40;;;;;;5019111;28;20444;-70
2022/08/03 08:27:53;;;;;;;3.20;2.90;;;26.90;47.40;;;;;;5013761;28;20441;-71
2022/08/03 08:30:41;;;;;;;3.03;2.73;;;26.90;47.50;;;;;;5012821;28;20495;-71
2022/08/03 08:33:11;;;;;;;3.47;3.17;;;26.90;47.40;;;;;;5013866;28;20475;-71
2022/08/03 08:35:51;;;;;;;6.80;3.10;;;26.90;47.50;;;;;;5012503;28;20469;-70
2022/08/03 08:38:19;;;;;;;3.60;3.00;;;26.90;47.50;;;;;;5021573;28;20918;-70
2022/08/03 08:40:49;;;;;;;3.37;2.73;;;26.90;47.40;;;;;;5013673;28;20465;-70
2022/08/03 08:43:17;;;;;;;3.70;3.10;;;26.90;47.50;;;;;;5021884;28;20464;-71
2022/08/03 08:45:45;;;;;;;3.03;2.83;;;26.90;47.60;;;;;;5012636;28;20876;-70
2022/08/03 08:48:17;;;;;;;3.70;2.87;;;26.90;47.50;;;;;;5021633;28;20445;-71
2022/08/03 08:50:46;;;;;;;2.73;2.53;;;26.90;47.70;;;;;;5016966;28;20452;-71
2022/08/03 08:53:15;;;;;;;3.30;3.00;;;26.90;47.50;;;;;;5022580;28;20453;-71
2022/08/03 08:55:46;;;;;;;4.13;3.13;;;26.90;47.50;;;;;;5012288;28;20463;-71
2022/08/03 08:58:34;;;;;;;3.03;2.73;;;26.90;47.50;;;;;;5010806;28;20429;-70
2022/08/03 09:01:03;;;;;;;2.30;2.10;;;26.90;47.60;;;;;;5012473;28;20471;-71
2022/08/03 09:03:34;;;;;;;2.73;2.53;;;26.90;48.90;;;;;;5011403;28;20437;-71
2022/08/03 09:06:03;;;;;;;3.60;2.50;;;26.90;47.60;;;;;;5007306;28;20524;-70
2022/08/03 09:08:32;;;;;;;2.60;2.40;;;26.90;47.60;;;;;;5017430;28;20475;-71
2022/08/03 09:11:00;;;;;;;2.97;2.30;;;26.90;48.80;;;;;;5016702;28;20503;-71
2022/08/03 09:13:29;;;;;;;2.70;2.50;;;26.90;47.70;;;;;;5023889;28;20455;-70
2022/08/03 09:16:10;;;;;;;2.90;2.63;;;26.90;47.70;;;;;;5011031;28;20481;-70
2022/08/03 09:18:40;;;;;;;2.67;1.90;;;26.90;47.70;;;;;;5014408;28;21196;-70
2022/08/03 09:21:16;;;;;;;2.73;2.40;;;26.90;47.70;;;;;;5012944;28;20488;-70
2022/08/03 09:24:03;;;;;;;4.67;2.60;;;26.90;47.70;;;;;;5007191;28;20429;-71
2022/08/03 09:26:37;;;;;;;2.80;2.30;;;26.90;48.90;;;;;;5011491;28;20483;-70
2022/08/03 09:29:07;;;;;;;2.70;2.50;;;26.90;47.80;;;;;;5021242;28;20445;-70
2022/08/03 09:31:43;;;;;;;3.27;2.97;;;26.90;47.70;;;;;;5012514;28;20511;-70
2022/08/03 09:34:14;;;;;;;2.90;2.60;;;26.90;47.80;;;;;;5012483;28;20445;-70
2022/08/03 09:36:45;;;;;;;4.53;2.67;;;26.90;47.80;;;;;;5012365;28;20475;-70
2022/08/03 09:39:14;;;;;;;2.53;2.33;;;26.90;47.80;;;;;;5012455;28;20495;-71
2022/08/03 09:41:44;;;;;;;3.63;2.50;;;26.90;47.80;;;;;;5019885;28;20473;-70
2022/08/03 09:44:12;;;;;;;3.70;2.23;;;26.90;47.80;;;;;;5018761;28;20445;-70
2022/08/03 09:46:55;;;;;;;2.80;2.13;;;26.90;47.70;;;;;;5005108;28;20457;-70
2022/08/03 09:49:25;;;;;;;2.80;2.40;;;26.90;47.80;;;;;;5011041;28;20467;-70
2022/08/03 09:51:53;;;;;;;2.67;1.93;;;26.90;47.70;;;;;;5011728;28;20460;-71
2022/08/03 09:54:43;;;;;;;2.20;2.00;;;26.90;47.70;;;;;;5020290;28;20565;-71
2022/08/03 09:57:22;;;;;;;1.97;1.77;;;26.90;47.80;;;;;;5014293;28;20472;-71
2022/08/03 09:59:51;;;;;;;3.03;2.73;;;26.90;47.70;;;;;;5004036;28;20506;-71
2022/08/03 10:02:40;;;;;;;4.30;2.70;;;26.90;48.00;;;;;;5011975;28;20483;-70
2022/08/03 10:05:12;;;;;;;3.70;1.88;;;26.90;46.90;;;;;;5010504;28;20474;-70
2022/08/03 10:07:48;;;;;;;2.93;1.80;;;27.00;46.50;;;;;;5013213;28;20221;-70
2022/08/03 10:10:17;;;;;;;2.40;2.20;;;27.00;46.40;;;;;;5010357;28;20990;-70
2022/08/03 10:13:00;;;;;;;3.20;2.30;;;27.00;46.50;;;;;;5006450;28;20459;-70
2022/08/03 10:15:28;;;;;;;4.23;1.93;;;27.00;46.60;;;;;;5011740;28;20483;-71
2022/08/03 10:18:17;;;;;;;2.20;1.93;;;27.00;46.70;;;;;;5013715;28;20468;-71
2022/08/03 10:20:51;;;;;;;2.10;1.90;;;27.00;46.60;;;;;;5012461;28;20464;-70
2022/08/03 10:23:21;;;;;;;2.03;1.80;;;27.00;46.70;;;;;;5012672;28;20424;-70
2022/08/03 10:25:53;;;;;;;1.90;1.80;;;27.00;46.70;;;;;;5004206;28;20449;-70
2022/08/03 10:28:22;;;;;;;2.23;2.03;;;27.00;46.70;;;;;;5010494;28;20433;-70
2022/08/03 10:30:52;;;;;;;2.20;2.00;;;27.00;46.70;;;;;;5018919;28;20460;-71
2022/08/03 10:33:22;;;;;;;2.40;1.67;;;27.00;46.70;;;;;;5010644;28;20503;-70
2022/08/03 10:36:15;;;;;;;2.20;2.00;;;27.00;46.70;;;;;;5009576;28;20511;-71
2022/08/03 10:38:45;;;;;;;3.17;2.27;;;27.00;46.90;;;;;;5012640;28;20421;-70
2022/08/03 10:41:16;;;;;;;1.80;1.70;;;27.00;46.90;;;;;;5017182;28;20459;-71
2022/08/03 10:43:50;;;;;;;1.77;1.67;;;27.00;46.80;;;;;;5015676;28;20485;-71
2022/08/03 10:46:21;;;;;;;2.30;1.80;;;27.00;46.90;;;;;;5023470;28;20467;-70
2022/08/03 10:48:51;;;;;;;2.27;2.07;;;26.90;46.90;;;;;;5021631;28;20424;-71
2022/08/03 10:51:21;;;;;;;1.90;1.80;;;27.00;47.00;;;;;;5019452;28;20460;-70
2022/08/03 10:53:49;;;;;;;1.80;1.70;;;26.90;46.90;;;;;;5022347;28;20428;-70
2022/08/03 10:59:56;;;;;;;2.20;2.00;;;27.00;47.10;;;;;;5019799;28;20429;-71
2022/08/03 11:03:13;;;;;;;3.03;1.60;;;27.00;47.10;;;;;;5019006;28;20885;-71
2022/08/03 11:05:42;;;;;;;2.00;1.80;;;27.00;47.10;;;;;;4977239;28;20460;-71
2022/08/03 11:08:39;;;;;;;2.77;1.93;;;27.00;47.10;;;;;;5018289;28;20436;-70
2022/08/03 11:11:27;;;;;;;2.20;1.50;;;27.00;47.20;;;;;;5005471;28;20465;-70
2022/08/03 11:14:01;;;;;;;2.00;1.73;;;27.00;47.10;;;;;;5007239;28;20930;-70
2022/08/03 11:16:30;;;;;;;2.20;1.90;;;27.00;47.00;;;;;;5019291;28;20486;-70
2022/08/03 11:19:00;;;;;;;2.50;1.63;;;27.00;47.00;;;;;;5010712;28;20468;-70
2022/08/03 11:21:55;;;;;;;2.17;1.97;;;27.00;47.00;;;;;;5012387;28;20465;-70
2022/08/03 11:25:01;;;;;;;3.00;2.13;;;27.00;47.10;;;;;;5000663;28;20441;-71
2022/08/03 11:27:32;;;;;;;2.93;1.87;;;27.10;47.20;;;;;;5014464;28;20522;-70
2022/08/03 11:30:03;;;;;;;1.77;1.67;;;27.00;47.10;;;;;;5005855;28;20512;-71
2022/08/03 11:33:00;;;;;;;2.37;1.83;;;27.00;47.10;;;;;;5012378;28;20487;-70
2022/08/03 11:35:35;;;;;;;1.83;1.70;;;27.00;47.10;;;;;;5022879;28;20440;-70
2022/08/03 11:38:06;;;;;;;3.00;2.17;;;27.10;47.20;;;;;;5020815;28;20478;-70
2022/08/03 11:40:39;;;;;;;2.20;2.00;;;27.10;48.40;;;;;;5015660;28;20496;-70
2022/08/03 11:43:08;;;;;;;1.57;1.47;;;27.10;47.20;;;;;;5021568;28;20815;-70
2022/08/03 11:45:37;;;;;;;2.43;1.80;;;27.00;47.20;;;;;;5024263;28;20479;-70
2022/08/03 11:48:16;;;;;;;2.10;1.47;;;27.00;47.10;;;;;;5022978;28;20491;-70
2022/08/03 11:50:45;;;;;;;2.20;1.70;;;27.10;47.10;;;;;;5017243;28;20444;-70
2022/08/03 11:53:17;;;;;;;1.97;1.57;;;27.10;47.20;;;;;;5025880;28;20527;-70
2022/08/03 11:55:48;;;;;;;1.90;1.70;;;27.10;47.20;;;;;;5013085;28;20484;-70
2022/08/03 11:58:21;;;;;;;2.40;1.50;;;27.10;47.20;;;;;;5022887;28;20465;-71
2022/08/03 12:01:11;;;;;;;1.60;1.37;;;27.10;47.20;;;;;;5014534;28;20460;-70
2022/08/03 12:03:39;;;;;;;2.40;2.00;;;27.10;47.20;;;;;;5021687;28;20866;-70
2022/08/03 12:06:10;;;;;;;1.93;1.80;;;27.10;47.20;;;;;;5012247;28;20866;-70
2022/08/03 12:08:39;;;;;;;1.97;1.77;;;27.10;47.20;;;;;;5012133;28;20460;-71
2022/08/03 12:11:10;;;;;;;1.50;1.40;;;27.10;47.20;;;;;;5012992;28;20932;-71
2022/08/03 12:13:43;;;;;;;1.63;1.40;;;27.10;47.20;;;;;;5023844;28;20429;-71
2022/08/03 12:16:31;;;;;;;2.23;1.53;;;27.10;47.20;;;;;;5012713;28;21101;-70
2022/08/03 12:19:02;;;;;;;2.23;1.80;;;27.10;47.20;;;;;;5019463;28;20456;-71
2022/08/03 12:21:30;;;;;;;2.07;1.70;;;27.10;47.20;;;;;;5012975;28;20531;-70
2022/08/03 12:23:59;;;;;;;1.60;1.50;;;27.10;47.20;;;;;;5009881;28;20476;-70
2022/08/03 12:26:30;;;;;;;2.07;1.53;;;27.20;47.30;;;;;;5011956;28;20507;-70
2022/08/03 12:28:58;;;;;;;2.07;1.57;;;27.20;47.50;;;;;;5014234;28;20448;-70
2022/08/03 12:31:26;;;;;;;1.77;1.67;;;27.20;47.30;;;;;;5013147;28;20546;-70
2022/08/03 12:34:02;;;;;;;1.83;1.65;;;27.20;47.30;;;;;;5010559;28;20535;-70
2022/08/03 12:36:33;;;;;;;1.80;1.70;;;27.20;47.20;;;;;;5018216;28;21000;-70
2022/08/03 12:39:05;;;;;;;1.90;1.70;;;27.20;47.20;;;;;;5013105;28;20524;-70
2022/08/03 12:41:37;;;;;;;1.57;1.47;;;27.30;47.30;;;;;;5012637;28;20486;-70
2022/08/03 12:44:06;;;;;;;1.70;1.60;;;27.30;47.30;;;;;;5011881;28;20989;-70
2022/08/03 12:46:36;;;;;;;2.23;2.03;;;27.20;47.20;;;;;;5016646;28;20535;-71
2022/08/03 12:49:09;;;;;;;1.63;1.53;;;27.20;47.20;;;;;;5015102;28;20503;-71
2022/08/03 12:51:56;;;;;;;2.00;1.87;;;27.30;47.30;;;;;;5013237;28;20540;-71
2022/08/03 12:54:26;;;;;;;1.90;1.80;;;27.30;47.20;;;;;;5011880;28;20437;-71
2022/08/03 12:57:00;;;;;;;2.00;1.80;;;27.30;47.20;;;;;;5011721;28;20519;-70
2022/08/03 12:59:30;;;;;;;1.90;1.60;;;27.30;47.20;;;;;;5015829;28;20473;-70
2022/08/03 13:02:03;;;;;;;1.33;1.23;;;27.30;47.30;;;;;;5011185;28;20475;-70
2022/08/03 13:04:36;;;;;;;1.73;1.63;;;27.30;47.30;;;;;;5010684;28;20448;-70
2022/08/03 13:07:06;;;;;;;1.70;1.50;;;27.30;47.40;;;;;;5011761;28;20473;-71
2022/08/03 13:09:42;;;;;;;1.70;1.60;;;27.30;47.50;;;;;;5013210;28;20472;-70
2022/08/03 13:12:14;;;;;;;1.30;1.10;;;27.40;47.50;;;;;;5012399;28;20477;-70
2022/08/03 13:14:43;;;;;;;3.57;1.70;;;27.30;47.40;;;;;;5010793;28;20495;-70
2022/08/03 13:17:12;;;;;;;1.60;1.50;;;27.30;47.40;;;;;;5012825;28;20587;-71
2022/08/03 13:19:41;;;;;;;1.57;1.47;;;27.40;47.40;;;;;;5020371;28;20472;-71
2022/08/03 13:22:13;;;;;;;1.87;1.60;;;27.40;47.30;;;;;;5019367;28;20464;-70
2022/08/03 13:24:42;;;;;;;1.67;1.57;;;27.40;47.40;;;;;;5020315;28;20445;-71
2022/08/03 13:27:12;;;;;;;1.53;1.30;;;27.40;47.30;;;;;;5021168;28;20463;-70